sensor_id;sensor_type;location;lat;lon;timestamp;pressure;altitude;pressure_sealevel;temperature;humidity
50852;BME280;43953;45.508;-122.806;2022-12-29T00:00:09;100288.16;;;11.16;66.31
50852;BME280;43953;45.508;-122.806;2022-12-29T00:00:41;100283.78;;;11.15;66.72
50852;BME280;43953;45.508;-122.806;2022-12-29T00:01:12;100292.94;;;11.14;66.24
50852;BME280;43953;45.508;-122.806;2022-12-29T00:01:44;100285.91;;;11.13;66.52
50852;BME280;43953;45.508;-122.806;2022-12-29T00:02:16;100288.59;;;11.13;67.10
50852;BME280;43953;45.508;-122.806;2022-12-29T00:02:48;100294.56;;;11.15;66.86
50852;BME280;43953;45.508;-122.806;2022-12-29T00:03:20;100290.84;;;11.16;66.82
50852;BME280;43953;45.508;-122.806;2022-12-29T00:03:51;100281.72;;;11.17;66.81
50852;BME280;43953;45.508;-122.806;2022-12-29T00:04:23;100284.19;;;11.19;66.93
50852;BME280;43953;45.508;-122.806;2022-12-29T00:04:55;100281.25;;;11.20;66.95
50852;BME280;43953;45.508;-122.806;2022-12-29T00:05:27;100289.13;;;11.22;66.93
50852;BME280;43953;45.508;-122.806;2022-12-29T00:05:58;100284.56;;;11.22;67.02
50852;BME280;43953;45.508;-122.806;2022-12-29T00:06:30;100279.19;;;11.22;67.11
50852;BME280;43953;45.508;-122.806;2022-12-29T00:07:03;100280.81;;;11.23;66.80
50852;BME280;43953;45.508;-122.806;2022-12-29T00:07:38;100284.56;;;11.22;66.65
50852;BME280;43953;45.508;-122.806;2022-12-29T00:08:09;100288.31;;;11.21;66.96
50852;BME280;43953;45.508;-122.806;2022-12-29T00:08:41;100285.03;;;11.19;66.87
50852;BME280;43953;45.508;-122.806;2022-12-29T00:09:13;100282.31;;;11.19;66.50
50852;BME280;43953;45.508;-122.806;2022-12-29T00:09:45;100285.84;;;11.20;66.90
50852;BME280;43953;45.508;-122.806;2022-12-29T00:10:17;100285.03;;;11.19;66.87
50852;BME280;43953;45.508;-122.806;2022-12-29T00:10:48;100281.50;;;11.19;66.56
50852;BME280;43953;45.508;-122.806;2022-12-29T00:11:25;100277.13;;;11.18;66.98
50852;BME280;43953;45.508;-122.806;2022-12-29T00:11:57;100279.84;;;11.18;66.45
50852;BME280;43953;45.508;-122.806;2022-12-29T00:12:29;100279.25;;;11.15;66.75
50852;BME280;43953;45.508;-122.806;2022-12-29T00:13:21;100279.09;;;11.10;66.67
50852;BME280;43953;45.508;-122.806;2022-12-29T00:14:13;100277.66;;;11.08;66.90
50852;BME280;43953;45.508;-122.806;2022-12-29T00:15:03;100276.22;;;11.05;66.86
50852;BME280;43953;45.508;-122.806;2022-12-29T00:15:53;100276.91;;;11.01;66.53
50852;BME280;43953;45.508;-122.806;2022-12-29T00:16:25;100279.63;;;11.01;66.73
50852;BME280;43953;45.508;-122.806;2022-12-29T00:16:57;100279.00;;;10.99;66.46
50852;BME280;43953;45.508;-122.806;2022-12-29T00:17:29;100277.94;;;11.00;66.88
50852;BME280;43953;45.508;-122.806;2022-12-29T00:18:01;100273.38;;;11.00;66.70
50852;BME280;43953;45.508;-122.806;2022-12-29T00:18:33;100278.56;;;11.02;66.72
50852;BME280;43953;45.508;-122.806;2022-12-29T00:19:04;100278.75;;;11.00;66.87
50852;BME280;43953;45.508;-122.806;2022-12-29T00:19:36;100283.94;;;11.02;66.54
50852;BME280;43953;45.508;-122.806;2022-12-29T00:20:26;100274.88;;;10.96;66.55
50852;BME280;43953;45.508;-122.806;2022-12-29T00:21:30;100271.19;;;10.90;66.98
50852;BME280;43953;45.508;-122.806;2022-12-29T00:22:19;100277.84;;;10.88;67.01
50852;BME280;43953;45.508;-122.806;2022-12-29T00:23:09;100273.72;;;10.85;67.00
50852;BME280;43953;45.508;-122.806;2022-12-29T00:23:59;100274.16;;;10.82;67.18
50852;BME280;43953;45.508;-122.806;2022-12-29T00:24:50;100270.91;;;10.80;66.92
50852;BME280;43953;45.508;-122.806;2022-12-29T00:25:24;100263.84;;;10.79;67.06
50852;BME280;43953;45.508;-122.806;2022-12-29T00:26:16;100268.41;;;10.79;67.12
50852;BME280;43953;45.508;-122.806;2022-12-29T00:27:57;100264.28;;;10.76;67.01
50852;BME280;43953;45.508;-122.806;2022-12-29T00:28:47;100262.66;;;10.75;67.17
50852;BME280;43953;45.508;-122.806;2022-12-29T00:29:37;100264.16;;;10.71;67.12
50852;BME280;43953;45.508;-122.806;2022-12-29T00:30:27;100266.00;;;10.70;67.47
50852;BME280;43953;45.508;-122.806;2022-12-29T00:31:17;100261.03;;;10.67;67.38
50852;BME280;43953;45.508;-122.806;2022-12-29T00:32:09;100265.59;;;10.67;67.37
50852;BME280;43953;45.508;-122.806;2022-12-29T00:33:00;100253.81;;;10.68;67.70
50852;BME280;43953;45.508;-122.806;2022-12-29T00:33:50;100266.00;;;10.70;67.46
50852;BME280;43953;45.508;-122.806;2022-12-29T00:34:40;100261.44;;;10.71;67.43
50852;BME280;43953;45.508;-122.806;2022-12-29T00:35:35;100263.09;;;10.72;67.51
50852;BME280;43953;45.508;-122.806;2022-12-29T00:36:28;100259.56;;;10.72;67.15
50852;BME280;43953;45.508;-122.806;2022-12-29T00:37:02;100261.66;;;10.69;66.97
50852;BME280;43953;45.508;-122.806;2022-12-29T00:37:41;100262.72;;;10.68;67.27
50852;BME280;43953;45.508;-122.806;2022-12-29T00:38:35;100259.03;;;10.63;67.43
50852;BME280;43953;45.508;-122.806;2022-12-29T00:39:27;100264.41;;;10.63;67.19
50852;BME280;43953;45.508;-122.806;2022-12-29T00:40:17;100266.50;;;10.61;67.18
50852;BME280;43953;45.508;-122.806;2022-12-29T00:41:07;100258.84;;;10.58;67.64
50852;BME280;43953;45.508;-122.806;2022-12-29T00:42:06;100261.16;;;10.54;67.54
50852;BME280;43953;45.508;-122.806;2022-12-29T00:42:56;100262.66;;;10.50;67.46
50852;BME280;43953;45.508;-122.806;2022-12-29T00:43:46;100254.78;;;10.48;67.43
50852;BME280;43953;45.508;-122.806;2022-12-29T00:44:36;100259.56;;;10.46;67.91
50852;BME280;43953;45.508;-122.806;2022-12-29T00:45:08;100255.84;;;10.47;67.84
50852;BME280;43953;45.508;-122.806;2022-12-29T00:45:41;100263.09;;;10.47;67.86
50852;BME280;43953;45.508;-122.806;2022-12-29T00:46:13;100259.56;;;10.46;67.69
50852;BME280;43953;45.508;-122.806;2022-12-29T00:46:44;100258.75;;;10.46;68.08
50852;BME280;43953;45.508;-122.806;2022-12-29T00:47:16;100256.88;;;10.46;67.70
50852;BME280;43953;45.508;-122.806;2022-12-29T00:47:48;100256.88;;;10.46;67.87
50852;BME280;43953;45.508;-122.806;2022-12-29T00:48:20;100253.38;;;10.46;67.72
50852;BME280;43953;45.508;-122.806;2022-12-29T00:49:13;100256.28;;;10.44;67.80
50852;BME280;43953;45.508;-122.806;2022-12-29T00:50:03;100259.41;;;10.41;68.13
50852;BME280;43953;45.508;-122.806;2022-12-29T00:50:34;100255.69;;;10.42;67.93
50852;BME280;43953;45.508;-122.806;2022-12-29T00:51:07;100258.38;;;10.42;68.07
50852;BME280;43953;45.508;-122.806;2022-12-29T00:51:39;100247.59;;;10.42;67.98
50852;BME280;43953;45.508;-122.806;2022-12-29T00:52:12;100256.28;;;10.44;68.39
50852;BME280;43953;45.508;-122.806;2022-12-29T00:52:44;100260.63;;;10.45;68.22
50852;BME280;43953;45.508;-122.806;2022-12-29T00:53:16;100257.94;;;10.45;67.58
50852;BME280;43953;45.508;-122.806;2022-12-29T00:53:47;100260.81;;;10.44;67.47
50852;BME280;43953;45.508;-122.806;2022-12-29T00:54:19;100256.72;;;10.41;67.55
50852;BME280;43953;45.508;-122.806;2022-12-29T00:54:51;100255.88;;;10.41;67.66
50852;BME280;43953;45.508;-122.806;2022-12-29T00:55:22;100262.31;;;10.40;67.70
50852;BME280;43953;45.508;-122.806;2022-12-29T00:55:54;100257.75;;;10.40;67.97
50852;BME280;43953;45.508;-122.806;2022-12-29T00:56:26;100261.50;;;10.39;67.63
50852;BME280;43953;45.508;-122.806;2022-12-29T00:56:58;100258.81;;;10.39;67.81
50852;BME280;43953;45.508;-122.806;2022-12-29T00:57:29;100261.69;;;10.38;67.63
50852;BME280;43953;45.508;-122.806;2022-12-29T00:58:01;100259.00;;;10.38;67.91
50852;BME280;43953;45.508;-122.806;2022-12-29T00:58:33;100252.81;;;10.37;67.78
50852;BME280;43953;45.508;-122.806;2022-12-29T00:59:07;100252.22;;;10.35;67.86
50852;BME280;43953;45.508;-122.806;2022-12-29T00:59:40;100256.56;;;10.36;67.88
50852;BME280;43953;45.508;-122.806;2022-12-29T01:00:12;100254.06;;;10.35;67.88
50852;BME280;43953;45.508;-122.806;2022-12-29T01:00:44;100246.84;;;10.35;67.81
50852;BME280;43953;45.508;-122.806;2022-12-29T01:01:16;100251.59;;;10.33;67.71
50852;BME280;43953;45.508;-122.806;2022-12-29T01:01:48;100249.75;;;10.34;67.78
50852;BME280;43953;45.508;-122.806;2022-12-29T01:02:19;100259.69;;;10.33;67.80
50852;BME280;43953;45.508;-122.806;2022-12-29T01:02:51;100259.69;;;10.33;68.20
50852;BME280;43953;45.508;-122.806;2022-12-29T01:03:23;100250.56;;;10.34;68.48
50852;BME280;43953;45.508;-122.806;2022-12-29T01:03:55;100252.44;;;10.34;68.38
50852;BME280;43953;45.508;-122.806;2022-12-29T01:04:26;100249.53;;;10.35;68.21
50852;BME280;43953;45.508;-122.806;2022-12-29T01:04:58;100246.84;;;10.35;67.98
50852;BME280;43953;45.508;-122.806;2022-12-29T01:05:30;100248.47;;;10.36;68.13
50852;BME280;43953;45.508;-122.806;2022-12-29T01:06:06;100252.22;;;10.35;68.36
50852;BME280;43953;45.508;-122.806;2022-12-29T01:06:40;100252.22;;;10.35;67.84
50852;BME280;43953;45.508;-122.806;2022-12-29T01:07:12;100248.69;;;10.35;68.16
50852;BME280;43953;45.508;-122.806;2022-12-29T01:07:43;100243.53;;;10.33;68.09
50852;BME280;43953;45.508;-122.806;2022-12-29T01:08:15;100247.88;;;10.34;67.68
50852;BME280;43953;45.508;-122.806;2022-12-29T01:08:47;100247.88;;;10.34;68.20
50852;BME280;43953;45.508;-122.806;2022-12-29T01:09:38;100243.53;;;10.33;67.91
50852;BME280;43953;45.508;-122.806;2022-12-29T01:10:28;100247.03;;;10.34;68.07
50852;BME280;43953;45.508;-122.806;2022-12-29T01:11:03;100243.53;;;10.33;67.93
50852;BME280;43953;45.508;-122.806;2022-12-29T01:11:35;100253.25;;;10.34;67.84
50852;BME280;43953;45.508;-122.806;2022-12-29T01:12:08;100250.56;;;10.34;68.12
50852;BME280;43953;45.508;-122.806;2022-12-29T01:12:39;100247.88;;;10.34;68.03
50852;BME280;43953;45.508;-122.806;2022-12-29T01:13:11;100249.75;;;10.34;68.04
50852;BME280;43953;45.508;-122.806;2022-12-29T01:13:43;100237.34;;;10.33;67.88
50852;BME280;43953;45.508;-122.806;2022-12-29T01:14:15;100245.19;;;10.34;68.31
50852;BME280;43953;45.508;-122.806;2022-12-29T01:14:47;100252.22;;;10.35;68.10
50852;BME280;43953;45.508;-122.806;2022-12-29T01:15:18;100253.88;;;10.36;68.20
50852;BME280;43953;45.508;-122.806;2022-12-29T01:15:53;100248.47;;;10.36;67.93
50852;BME280;43953;45.508;-122.806;2022-12-29T01:16:25;100244.34;;;10.34;67.68
50852;BME280;43953;45.508;-122.806;2022-12-29T01:16:57;100246.84;;;10.35;67.82
50852;BME280;43953;45.508;-122.806;2022-12-29T01:17:29;100245.19;;;10.34;67.96
50852;BME280;43953;45.508;-122.806;2022-12-29T01:18:00;100239.78;;;10.34;67.72
50852;BME280;43953;45.508;-122.806;2022-12-29T01:18:32;100242.72;;;10.33;67.68
50852;BME280;43953;45.508;-122.806;2022-12-29T01:19:04;100241.88;;;10.32;67.81
50852;BME280;43953;45.508;-122.806;2022-12-29T01:19:36;100242.91;;;10.31;67.99
50852;BME280;43953;45.508;-122.806;2022-12-29T01:20:08;100239.63;;;10.29;68.17
50852;BME280;43953;45.508;-122.806;2022-12-29T01:20:40;100242.31;;;10.29;68.25
50852;BME280;43953;45.508;-122.806;2022-12-29T01:21:11;100238.59;;;10.30;68.02
50852;BME280;43953;45.508;-122.806;2022-12-29T01:21:44;100239.63;;;10.29;68.28
50852;BME280;43953;45.508;-122.806;2022-12-29T01:22:16;100243.16;;;10.30;68.37
50852;BME280;43953;45.508;-122.806;2022-12-29T01:22:48;100243.97;;;10.30;68.31
50852;BME280;43953;45.508;-122.806;2022-12-29T01:23:20;100249.56;;;10.29;67.72
50852;BME280;43953;45.508;-122.806;2022-12-29T01:23:51;100243.34;;;10.28;67.58
50852;BME280;43953;45.508;-122.806;2022-12-29T01:24:23;100239.84;;;10.28;68.04
50852;BME280;43953;45.508;-122.806;2022-12-29T01:24:56;100243.59;;;10.27;67.93
50852;BME280;43953;45.508;-122.806;2022-12-29T01:25:28;100244.41;;;10.27;67.92
50852;BME280;43953;45.508;-122.806;2022-12-29T01:26:12;100240.66;;;10.28;68.11
50852;BME280;43953;45.508;-122.806;2022-12-29T01:26:44;100241.47;;;10.29;67.94
50852;BME280;43953;45.508;-122.806;2022-12-29T01:27:16;100245.84;;;10.30;67.62
50852;BME280;43953;45.508;-122.806;2022-12-29T01:27:48;100236.94;;;10.29;67.79
50852;BME280;43953;45.508;-122.806;2022-12-29T01:28:19;100246.06;;;10.28;67.73
50852;BME280;43953;45.508;-122.806;2022-12-29T01:28:51;100235.69;;;10.25;67.88
50852;BME280;43953;45.508;-122.806;2022-12-29T01:29:23;100235.69;;;10.25;68.21
50852;BME280;43953;45.508;-122.806;2022-12-29T01:29:55;100237.56;;;10.24;68.19
50852;BME280;43953;45.508;-122.806;2022-12-29T01:30:26;100234.06;;;10.24;67.76
50852;BME280;43953;45.508;-122.806;2022-12-29T01:31:00;100236.13;;;10.22;67.82
50852;BME280;43953;45.508;-122.806;2022-12-29T01:31:32;100241.75;;;10.20;68.11
50852;BME280;43953;45.508;-122.806;2022-12-29T01:32:04;100238.19;;;10.20;68.06
50852;BME280;43953;45.508;-122.806;2022-12-29T01:32:36;100237.63;;;10.18;67.87
50852;BME280;43953;45.508;-122.806;2022-12-29T01:33:07;100246.50;;;10.18;68.26
50852;BME280;43953;45.508;-122.806;2022-12-29T01:33:40;100243.81;;;10.18;68.39
50852;BME280;43953;45.508;-122.806;2022-12-29T01:34:11;100244.03;;;10.17;68.24
50852;BME280;43953;45.508;-122.806;2022-12-29T01:34:44;100252.31;;;10.15;68.38
50852;BME280;43953;45.508;-122.806;2022-12-29T01:35:16;100249.63;;;10.15;68.41
50852;BME280;43953;45.508;-122.806;2022-12-29T01:35:47;100239.91;;;10.14;68.46
50852;BME280;43953;45.508;-122.806;2022-12-29T01:36:20;100239.91;;;10.14;68.23
50852;BME280;43953;45.508;-122.806;2022-12-29T01:36:51;100250.66;;;10.14;68.59
50852;BME280;43953;45.508;-122.806;2022-12-29T01:37:23;100253.16;;;10.16;68.29
50852;BME280;43953;45.508;-122.806;2022-12-29T01:37:55;100250.47;;;10.16;68.77
50852;BME280;43953;45.508;-122.806;2022-12-29T01:38:26;100254.78;;;10.17;68.39
50852;BME280;43953;45.508;-122.806;2022-12-29T01:38:58;100250.22;;;10.17;68.70
50852;BME280;43953;45.508;-122.806;2022-12-29T01:39:30;100258.09;;;10.19;68.74
50852;BME280;43953;45.508;-122.806;2022-12-29T01:40:02;100257.28;;;10.18;68.67
50852;BME280;43953;45.508;-122.806;2022-12-29T01:40:33;100253.75;;;10.18;68.54
50852;BME280;43953;45.508;-122.806;2022-12-29T01:41:07;100259.16;;;10.18;68.10
50852;BME280;43953;45.508;-122.806;2022-12-29T01:41:39;100260.16;;;10.17;68.44
50852;BME280;43953;45.508;-122.806;2022-12-29T01:42:19;100254.78;;;10.17;68.35
50852;BME280;43953;45.508;-122.806;2022-12-29T01:42:53;100264.53;;;10.18;68.72
50852;BME280;43953;45.508;-122.806;2022-12-29T01:43:52;100253.97;;;10.16;68.61
50852;BME280;43953;45.508;-122.806;2022-12-29T01:44:52;100259.56;;;10.15;68.83
50852;BME280;43953;45.508;-122.806;2022-12-29T01:45:24;100256.88;;;10.15;68.67
50852;BME280;43953;45.508;-122.806;2022-12-29T01:45:55;100261.22;;;10.16;68.73
50852;BME280;43953;45.508;-122.806;2022-12-29T01:47:07;100253.75;;;10.18;68.61
50852;BME280;43953;45.508;-122.806;2022-12-29T01:48:01;100261.84;;;10.18;68.66
50852;BME280;43953;45.508;-122.806;2022-12-29T01:48:34;100248.16;;;10.19;68.53
50852;BME280;43953;45.508;-122.806;2022-12-29T01:49:33;100246.28;;;10.20;68.93
50852;BME280;43953;45.508;-122.806;2022-12-29T01:50:09;100245.25;;;10.21;68.77
50852;BME280;43953;45.508;-122.806;2022-12-29T01:50:49;100250.63;;;10.21;68.71
50852;BME280;43953;45.508;-122.806;2022-12-29T01:51:23;100245.84;;;10.23;68.79
50852;BME280;43953;45.508;-122.806;2022-12-29T01:52:00;100247.50;;;10.24;68.50
50852;BME280;43953;45.508;-122.806;2022-12-29T01:52:35;100243.75;;;10.25;68.92
50852;BME280;43953;45.508;-122.806;2022-12-29T01:53:13;100252.66;;;10.25;68.42
50852;BME280;43953;45.508;-122.806;2022-12-29T01:53:47;100244.59;;;10.25;68.80
50852;BME280;43953;45.508;-122.806;2022-12-29T01:54:28;100248.53;;;10.23;68.32
50852;BME280;43953;45.508;-122.806;2022-12-29T01:55:03;100245.25;;;10.21;68.77
50852;BME280;43953;45.508;-122.806;2022-12-29T01:55:42;100253.31;;;10.21;68.43
50852;BME280;43953;45.508;-122.806;2022-12-29T01:56:17;100257.03;;;10.20;68.53
50852;BME280;43953;45.508;-122.806;2022-12-29T01:56:52;100251.06;;;10.18;68.91
50852;BME280;43953;45.508;-122.806;2022-12-29T01:57:29;100257.28;;;10.18;68.56
50852;BME280;43953;45.508;-122.806;2022-12-29T01:58:03;100251.06;;;10.18;68.84
50852;BME280;43953;45.508;-122.806;2022-12-29T01:58:39;100255.84;;;10.16;68.80
50852;BME280;43953;45.508;-122.806;2022-12-29T01:59:17;100247.75;;;10.16;68.93
50852;BME280;43953;45.508;-122.806;2022-12-29T02:00:02;100251.50;;;10.15;68.92
50852;BME280;43953;45.508;-122.806;2022-12-29T02:00:34;100251.50;;;10.15;68.87
50852;BME280;43953;45.508;-122.806;2022-12-29T02:01:07;100255.22;;;10.14;68.77
50852;BME280;43953;45.508;-122.806;2022-12-29T02:01:39;100253.59;;;10.13;68.56
50852;BME280;43953;45.508;-122.806;2022-12-29T02:02:11;100256.28;;;10.13;68.74
50852;BME280;43953;45.508;-122.806;2022-12-29T02:02:47;100251.94;;;10.12;68.72
50852;BME280;43953;45.508;-122.806;2022-12-29T02:03:21;100251.09;;;10.11;68.87
50852;BME280;43953;45.508;-122.806;2022-12-29T02:03:55;100253.59;;;10.13;69.18
50852;BME280;43953;45.508;-122.806;2022-12-29T02:04:29;100254.63;;;10.12;68.88
50852;BME280;43953;45.508;-122.806;2022-12-29T02:05:09;100242.81;;;10.13;69.24
50852;BME280;43953;45.508;-122.806;2022-12-29T02:05:47;100245.50;;;10.13;68.91
50852;BME280;43953;45.508;-122.806;2022-12-29T02:06:32;100249.47;;;10.10;68.59
50852;BME280;43953;45.508;-122.806;2022-12-29T02:07:08;100245.34;;;10.08;68.44
50852;BME280;43953;45.508;-122.806;2022-12-29T02:07:42;100246.38;;;10.07;68.52
50852;BME280;43953;45.508;-122.806;2022-12-29T02:08:14;100250.09;;;10.06;68.98
50852;BME280;43953;45.508;-122.806;2022-12-29T02:08:47;100245.75;;;10.05;68.76
50852;BME280;43953;45.508;-122.806;2022-12-29T02:09:18;100251.97;;;10.05;68.83
50852;BME280;43953;45.508;-122.806;2022-12-29T02:09:53;100248.47;;;10.05;68.93
50852;BME280;43953;45.508;-122.806;2022-12-29T02:10:28;100244.13;;;10.03;68.69
50852;BME280;43953;45.508;-122.806;2022-12-29T02:11:01;100243.31;;;10.03;69.04
50852;BME280;43953;45.508;-122.806;2022-12-29T02:11:35;100251.56;;;10.01;68.78
50852;BME280;43953;45.508;-122.806;2022-12-29T02:12:08;100249.94;;;10.00;68.90
50852;BME280;43953;45.508;-122.806;2022-12-29T02:12:41;100253.66;;;9.99;69.25
50852;BME280;43953;45.508;-122.806;2022-12-29T02:13:15;100249.31;;;9.98;69.26
50852;BME280;43953;45.508;-122.806;2022-12-29T02:13:48;100253.66;;;9.99;69.12
50852;BME280;43953;45.508;-122.806;2022-12-29T02:14:20;100254.09;;;9.96;69.25
50852;BME280;43953;45.508;-122.806;2022-12-29T02:14:56;100252.00;;;9.98;69.31
50852;BME280;43953;45.508;-122.806;2022-12-29T02:17:50;100252.88;;;9.92;69.12
50852;BME280;43953;45.508;-122.806;2022-12-29T02:23:37;100247.53;;;9.86;69.49
50852;BME280;43953;45.508;-122.806;2022-12-29T02:24:00;100252.09;;;9.85;69.76
50852;BME280;43953;45.508;-122.806;2022-12-29T02:28:13;100248.78;;;9.83;69.55
50852;BME280;43953;45.508;-122.806;2022-12-29T02:29:59;100251.25;;;9.85;69.80
50852;BME280;43953;45.508;-122.806;2022-12-29T02:30:46;100245.06;;;9.84;69.66
50852;BME280;43953;45.508;-122.806;2022-12-29T02:36:37;100238.91;;;9.77;69.76
50852;BME280;43953;45.508;-122.806;2022-12-29T02:39:40;100233.13;;;9.73;70.02
50852;BME280;43953;45.508;-122.806;2022-12-29T02:48:04;100229.03;;;9.64;70.83
50852;BME280;43953;45.508;-122.806;2022-12-29T02:48:46;100229.25;;;9.63;70.43
50852;BME280;43953;45.508;-122.806;2022-12-29T02:49:33;100222.84;;;9.64;70.38
50852;BME280;43953;45.508;-122.806;2022-12-29T02:50:15;100222.84;;;9.64;70.48
50852;BME280;43953;45.508;-122.806;2022-12-29T02:51:10;100223.66;;;9.64;70.66
50852;BME280;43953;45.508;-122.806;2022-12-29T02:51:55;100230.69;;;9.65;70.94
50852;BME280;43953;45.508;-122.806;2022-12-29T02:52:38;100225.31;;;9.65;70.61
50852;BME280;43953;45.508;-122.806;2022-12-29T02:53:15;100231.50;;;9.66;70.50
50852;BME280;43953;45.508;-122.806;2022-12-29T02:53:47;100219.94;;;9.65;70.65
50852;BME280;43953;45.508;-122.806;2022-12-29T02:54:37;100226.97;;;9.66;70.81
50852;BME280;43953;45.508;-122.806;2022-12-29T02:55:12;100224.06;;;9.68;70.91
50852;BME280;43953;45.508;-122.806;2022-12-29T02:55:50;100230.03;;;9.70;70.65
50852;BME280;43953;45.508;-122.806;2022-12-29T02:56:23;100231.09;;;9.69;70.65
50852;BME280;43953;45.508;-122.806;2022-12-29T02:56:54;100227.34;;;9.70;70.65
50852;BME280;43953;45.508;-122.806;2022-12-29T02:58:41;100232.72;;;9.70;70.66
50852;BME280;43953;45.508;-122.806;2022-12-29T02:59:13;100233.56;;;9.70;70.77
50852;BME280;43953;45.508;-122.806;2022-12-29T02:59:45;100232.72;;;9.70;70.75
50852;BME280;43953;45.508;-122.806;2022-12-29T03:00:19;100234.59;;;9.69;70.53
50852;BME280;43953;45.508;-122.806;2022-12-29T03:03:20;100230.69;;;9.65;70.93
50852;BME280;43953;45.508;-122.806;2022-12-29T03:04:11;100231.72;;;9.64;70.73
50852;BME280;43953;45.508;-122.806;2022-12-29T03:05:33;100224.94;;;9.62;70.66
50852;BME280;43953;45.508;-122.806;2022-12-29T03:07:19;100231.56;;;9.59;70.67
50852;BME280;43953;45.508;-122.806;2022-12-29T03:08:55;100232.38;;;9.60;70.70
50852;BME280;43953;45.508;-122.806;2022-12-29T03:09:49;100225.75;;;9.62;70.87
50852;BME280;43953;45.508;-122.806;2022-12-29T03:10:52;100234.63;;;9.63;70.76
50852;BME280;43953;45.508;-122.806;2022-12-29T03:11:33;100227.63;;;9.62;70.78
50852;BME280;43953;45.508;-122.806;2022-12-29T03:12:31;100233.19;;;9.60;70.79
50852;BME280;43953;45.508;-122.806;2022-12-29T03:13:46;100234.00;;;9.61;70.89
50852;BME280;43953;45.508;-122.806;2022-12-29T03:14:52;100231.31;;;9.61;70.89
50852;BME280;43953;45.508;-122.806;2022-12-29T03:16:35;100230.31;;;9.62;70.70
50852;BME280;43953;45.508;-122.806;2022-12-29T03:17:27;100228.44;;;9.62;71.09
50852;BME280;43953;45.508;-122.806;2022-12-29T03:18:06;100233.59;;;9.64;71.06
50852;BME280;43953;45.508;-122.806;2022-12-29T03:18:51;100231.13;;;9.62;70.86
50852;BME280;43953;45.508;-122.806;2022-12-29T03:19:28;100232.75;;;9.63;71.07
50852;BME280;43953;45.508;-122.806;2022-12-29T03:20:07;100225.50;;;9.64;71.09
50852;BME280;43953;45.508;-122.806;2022-12-29T03:20:54;100226.56;;;9.63;70.69
50852;BME280;43953;45.508;-122.806;2022-12-29T03:22:41;100229.25;;;9.63;70.87
50852;BME280;43953;45.508;-122.806;2022-12-29T03:23:16;100223.06;;;9.62;71.10
50852;BME280;43953;45.508;-122.806;2022-12-29T03:23:49;100226.56;;;9.63;71.30
50852;BME280;43953;45.508;-122.806;2022-12-29T03:24:28;100222.84;;;9.64;71.09
50852;BME280;43953;45.508;-122.806;2022-12-29T03:25:08;100219.13;;;9.65;71.01
50852;BME280;43953;45.508;-122.806;2022-12-29T03:25:47;100223.44;;;9.66;70.89
50852;BME280;43953;45.508;-122.806;2022-12-29T03:26:20;100225.94;;;9.67;71.01
50852;BME280;43953;45.508;-122.806;2022-12-29T03:26:54;100219.72;;;9.67;71.20
50852;BME280;43953;45.508;-122.806;2022-12-29T03:27:35;100227.78;;;9.67;70.82
50852;BME280;43953;45.508;-122.806;2022-12-29T03:28:13;100222.41;;;9.67;70.72
50852;BME280;43953;45.508;-122.806;2022-12-29T03:28:53;100222.41;;;9.67;70.98
50852;BME280;43953;45.508;-122.806;2022-12-29T03:29:31;100215.38;;;9.66;71.02
50852;BME280;43953;45.508;-122.806;2022-12-29T03:30:05;100214.34;;;9.67;70.89
50852;BME280;43953;45.508;-122.806;2022-12-29T03:30:38;100222.19;;;9.68;70.91
50852;BME280;43953;45.508;-122.806;2022-12-29T03:31:12;100216.81;;;9.68;70.79
50852;BME280;43953;45.508;-122.806;2022-12-29T03:31:45;100215.78;;;9.69;70.76
50852;BME280;43953;45.508;-122.806;2022-12-29T03:32:20;100220.34;;;9.69;71.08
50852;BME280;43953;45.508;-122.806;2022-12-29T03:32:56;100218.47;;;9.69;70.96
50852;BME280;43953;45.508;-122.806;2022-12-29T03:33:29;100216.59;;;9.70;71.01
50852;BME280;43953;45.508;-122.806;2022-12-29T03:34:03;100214.94;;;9.69;70.63
50852;BME280;43953;45.508;-122.806;2022-12-29T03:34:37;100215.78;;;9.69;70.81
50852;BME280;43953;45.508;-122.806;2022-12-29T03:35:12;100221.16;;;9.69;70.78
50852;BME280;43953;45.508;-122.806;2022-12-29T03:35:46;100216.59;;;9.70;70.73
50852;BME280;43953;45.508;-122.806;2022-12-29T03:36:27;100208.75;;;9.68;71.16
50852;BME280;43953;45.508;-122.806;2022-12-29T03:37:10;100217.66;;;9.69;70.90
50852;BME280;43953;45.508;-122.806;2022-12-29T03:38:59;100210.63;;;9.68;71.02
50852;BME280;43953;45.508;-122.806;2022-12-29T03:39:33;100217.03;;;9.67;71.13
50852;BME280;43953;45.508;-122.806;2022-12-29T03:40:05;100214.34;;;9.67;70.87
50852;BME280;43953;45.508;-122.806;2022-12-29T03:40:41;100217.03;;;9.67;71.27
50852;BME280;43953;45.508;-122.806;2022-12-29T03:41:20;100214.13;;;9.68;70.99
50852;BME280;43953;45.508;-122.806;2022-12-29T03:42:06;100209.81;;;9.67;71.12
50852;BME280;43953;45.508;-122.806;2022-12-29T03:42:41;100211.66;;;9.67;71.38
50852;BME280;43953;45.508;-122.806;2022-12-29T03:43:13;100208.97;;;9.67;71.09
50852;BME280;43953;45.508;-122.806;2022-12-29T03:43:46;100212.50;;;9.67;71.17
50852;BME280;43953;45.508;-122.806;2022-12-29T03:44:18;100205.25;;;9.68;71.20
50852;BME280;43953;45.508;-122.806;2022-12-29T03:44:54;100210.63;;;9.68;71.29
50852;BME280;43953;45.508;-122.806;2022-12-29T03:45:27;100203.38;;;9.68;71.32
50852;BME280;43953;45.508;-122.806;2022-12-29T03:45:59;100207.94;;;9.68;71.30